Chapin, South Carolina
Current Conditions -  °F | °C
As of 1:55 AM on Sunday 23 Nov 2014 (Local Time) from KFDW Reporting Station
Light Rain Light Rain  
Wind Chill: 43°   Ceiling: 1400
Heat Index: 43°   Visibility: 10mi
Dew Point: 41°   Wind: 0mph
Humidity: 93%   Direction: NA
Pressure: 30.26"   Gusts: NA
Location:  34.17°N, 81.35°W
Report Text: KFDW 230655Z AUTO 00000KT 10SM -RA SCT009 BKN014 BKN085 06/05 A3026 RMK AO1
Loading
Personal Weather Stations






























Interactive Weather Map New forecast layout! Learn more

10-Day Weather Forecast

Advertisements
Track Severe Weather on mobile